Time;durP1;ratioP1;P1;durP2;ratioP2;P2;SDS_P1;SDS_P2;PMS_P1;PMS_P2;Temp;Humidity;BMP_temperature;BMP_pressure;BME280_temperature;BME280_humidity;BME280_pressure;Samples;Min_cycle;Max_cycle;Signal;HPM_P1;HPM_P2
2022/11/07 00:00:35;;;;;;;7.55;4.93;;;11.20;99.90;;;;;;5016735;28;20743;-79
2022/11/07 00:03:02;;;;;;;4.95;4.53;;;11.20;99.90;;;;;;5014434;28;20223;-77
2022/11/07 00:05:28;;;;;;;7.78;4.40;;;11.20;99.90;;;;;;5012867;28;20213;-79
2022/11/07 00:07:55;;;;;;;7.55;4.10;;;11.20;99.90;;;;;;5015295;28;20200;-78
2022/11/07 00:10:22;;;;;;;13.07;4.20;;;11.20;99.90;;;;;;5011416;28;20302;-78
2022/11/07 00:12:50;;;;;;;6.03;4.70;;;11.20;99.90;;;;;;5016064;28;20226;-78
2022/11/07 00:15:17;;;;;;;5.22;4.20;;;11.20;99.90;;;;;;5017579;28;20224;-78
2022/11/07 00:17:44;;;;;;;5.45;4.93;;;11.20;99.90;;;;;;5013993;28;20258;-79
2022/11/07 00:20:12;;;;;;;5.65;4.75;;;11.20;99.90;;;;;;5019863;28;20211;-77
2022/11/07 00:22:38;;;;;;;5.05;4.55;;;11.20;99.90;;;;;;5018723;28;20291;-78
2022/11/07 00:25:06;;;;;;;7.13;4.85;;;11.30;99.90;;;;;;5017583;28;20287;-78
2022/11/07 00:27:33;;;;;;;9.98;5.68;;;11.20;99.90;;;;;;5019708;28;20724;-76
2022/11/07 00:30:01;;;;;;;7.50;5.15;;;11.30;99.90;;;;;;5018959;28;20295;-78
2022/11/07 00:32:28;;;;;;;7.90;5.13;;;11.30;99.90;;;;;;5017081;28;20262;-79
2022/11/07 00:34:55;;;;;;;5.35;4.80;;;11.20;99.90;;;;;;5015003;28;20258;-79
2022/11/07 00:37:22;;;;;;;6.57;5.53;;;11.20;99.90;;;;;;5020983;28;20204;-79
2022/11/07 00:39:48;;;;;;;5.85;5.25;;;11.20;99.90;;;;;;5026463;28;20672;-77
2022/11/07 00:42:15;;;;;;;5.95;5.30;;;11.20;99.90;;;;;;5018667;28;20200;-77
2022/11/07 00:44:42;;;;;;;7.10;4.80;;;11.20;99.90;;;;;;5008441;28;20221;-78
2022/11/07 00:47:10;;;;;;;6.03;4.53;;;11.10;99.90;;;;;;5014416;28;20203;-78
2022/11/07 00:49:37;;;;;;;5.63;5.13;;;11.20;99.90;;;;;;5018908;28;20209;-79
2022/11/07 00:52:04;;;;;;;6.32;4.57;;;11.30;99.90;;;;;;5020477;28;20575;-77
2022/11/07 00:54:31;;;;;;;8.18;5.05;;;11.30;99.90;;;;;;5019167;28;20319;-77
2022/11/07 00:56:58;;;;;;;7.50;4.68;;;11.30;99.90;;;;;;5018585;28;20276;-77
2022/11/07 00:59:25;;;;;;;9.13;5.65;;;11.40;99.90;;;;;;5020171;28;20205;-76
2022/11/07 01:01:52;;;;;;;8.90;4.47;;;11.40;99.90;;;;;;5021893;28;20242;-77
2022/11/07 01:07:05;;;;;;;6.03;5.43;;;11.50;99.90;;;;;;5014562;28;20204;-77
2022/11/07 01:09:32;;;;;;;5.85;4.50;;;11.60;99.90;;;;;;5011288;28;20213;-77
2022/11/07 01:11:59;;;;;;;5.70;5.10;;;11.60;99.90;;;;;;5017370;28;20206;-77
2022/11/07 01:14:26;;;;;;;5.90;5.30;;;11.60;99.90;;;;;;5011069;28;20309;-78
2022/11/07 01:16:53;;;;;;;5.70;4.60;;;11.60;99.90;;;;;;5023165;28;20290;-77
2022/11/07 01:19:21;;;;;;;6.93;5.65;;;11.60;99.90;;;;;;5017742;28;20286;-78
2022/11/07 01:21:48;;;;;;;7.40;5.80;;;11.60;99.90;;;;;;5009658;28;20240;-77
2022/11/07 01:24:16;;;;;;;7.40;5.05;;;11.60;99.90;;;;;;5022120;28;20704;-76
2022/11/07 01:26:46;;;;;;;7.75;5.50;;;11.60;99.90;;;;;;5014234;28;20237;-78
2022/11/07 01:29:14;;;;;;;6.90;5.38;;;11.60;99.90;;;;;;5013812;28;20261;-78
2022/11/07 01:31:41;;;;;;;8.35;4.65;;;11.70;99.90;;;;;;5016893;28;20215;-76
2022/11/07 01:34:08;;;;;;;6.00;5.40;;;11.80;99.90;;;;;;5012638;28;20245;-77
2022/11/07 01:36:36;;;;;;;5.28;4.65;;;11.80;99.90;;;;;;5021322;28;20256;-78
2022/11/07 01:39:04;;;;;;;5.72;5.15;;;11.80;99.90;;;;;;5025273;28;20442;-78
2022/11/07 01:41:33;;;;;;;6.45;5.20;;;11.90;99.90;;;;;;5023203;28;20780;-77
2022/11/07 01:44:02;;;;;;;5.93;3.55;;;11.90;99.90;;;;;;5018441;28;20220;-78
2022/11/07 01:46:32;;;;;;;5.80;4.18;;;11.90;99.90;;;;;;5028203;28;20354;-77
2022/11/07 01:49:07;;;;;;;4.88;4.38;;;12.00;99.90;;;;;;5021612;28;20211;-77
2022/11/07 01:51:39;;;;;;;6.97;4.30;;;11.90;99.90;;;;;;5020035;28;20649;-77
2022/11/07 01:54:06;;;;;;;7.63;5.00;;;12.00;99.90;;;;;;5009086;28;20601;-77
2022/11/07 01:56:37;;;;;;;4.60;3.88;;;12.00;99.90;;;;;;5019715;28;20221;-78
2022/11/07 01:59:06;;;;;;;5.13;4.35;;;12.00;99.90;;;;;;5016659;28;20204;-78
2022/11/07 02:01:32;;;;;;;6.82;4.50;;;12.00;99.90;;;;;;5010014;28;20223;-78
2022/11/07 02:04:00;;;;;;;8.30;3.97;;;12.00;99.90;;;;;;5016553;28;20220;-79
2022/11/07 02:06:36;;;;;;;6.63;4.65;;;12.10;99.90;;;;;;5014996;28;20272;-78
2022/11/07 02:09:05;;;;;;;6.55;4.15;;;12.10;99.90;;;;;;5014844;28;20217;-78
2022/11/07 02:11:32;;;;;;;5.57;4.03;;;12.10;99.90;;;;;;5018260;28;20271;-78
2022/11/07 02:13:59;;;;;;;5.93;4.22;;;12.10;99.90;;;;;;5010958;28;20690;-76
2022/11/07 02:16:26;;;;;;;7.05;3.95;;;12.20;99.90;;;;;;5019219;28;20216;-77
2022/11/07 02:18:54;;;;;;;11.02;4.43;;;12.20;99.90;;;;;;5012962;28;20276;-77
2022/11/07 02:21:30;;;;;;;3.75;3.35;;;12.20;99.90;;;;;;5018399;28;20219;-77
2022/11/07 02:24:06;;;;;;;7.50;3.95;;;12.20;99.90;;;;;;5015663;28;20630;-77
2022/11/07 02:26:36;;;;;;;7.97;3.65;;;12.20;99.90;;;;;;5013741;28;20275;-77
2022/11/07 02:29:04;;;;;;;4.07;3.38;;;12.20;99.90;;;;;;5025736;28;20702;-78
2022/11/07 02:31:31;;;;;;;7.97;5.75;;;12.30;99.90;;;;;;5022006;28;20658;-78
2022/11/07 02:33:58;;;;;;;6.25;3.70;;;12.20;99.90;;;;;;5012576;28;20685;-77
2022/11/07 02:36:25;;;;;;;5.05;3.60;;;12.20;99.90;;;;;;5012333;28;20228;-77
2022/11/07 02:38:57;;;;;;;5.97;4.30;;;12.20;99.90;;;;;;5013275;28;20204;-78
2022/11/07 02:41:26;;;;;;;5.72;3.80;;;12.20;99.90;;;;;;5015208;28;20205;-77
2022/11/07 02:43:58;;;;;;;6.85;3.75;;;12.10;99.90;;;;;;5018919;28;20310;-77
2022/11/07 02:46:26;;;;;;;5.88;3.00;;;12.20;99.90;;;;;;5014418;28;20204;-78
2022/11/07 02:48:56;;;;;;;4.95;4.25;;;12.20;99.90;;;;;;5018561;28;20208;-78
2022/11/07 02:51:23;;;;;;;3.83;2.92;;;12.20;99.90;;;;;;5016750;28;20212;-78
2022/11/07 02:53:50;;;;;;;11.75;3.90;;;12.10;99.90;;;;;;5009555;28;20753;-78
2022/11/07 02:56:17;;;;;;;8.13;3.03;;;12.10;99.90;;;;;;5013386;28;20220;-79
2022/11/07 02:58:44;;;;;;;4.78;3.53;;;12.10;99.90;;;;;;5017882;28;20283;-76
2022/11/07 03:01:12;;;;;;;6.43;2.83;;;12.00;99.90;;;;;;5026647;28;20204;-76
2022/11/07 03:03:42;;;;;;;5.10;2.97;;;12.10;99.90;;;;;;5019161;28;20252;-76
2022/11/07 03:06:10;;;;;;;7.53;3.05;;;12.00;99.90;;;;;;5030585;28;20226;-75
2022/11/07 03:08:38;;;;;;;6.22;3.00;;;12.00;99.90;;;;;;5021150;28;20220;-77
2022/11/07 03:11:05;;;;;;;4.50;2.40;;;11.90;99.90;;;;;;5028627;28;20216;-75
2022/11/07 03:13:32;;;;;;;6.47;3.35;;;11.90;99.90;;;;;;5035624;28;20252;-75
2022/11/07 03:15:59;;;;;;;4.10;2.60;;;11.90;99.90;;;;;;5023935;28;20274;-75
2022/11/07 03:18:27;;;;;;;3.80;2.95;;;11.80;99.90;;;;;;5036720;28;20208;-76
2022/11/07 03:20:55;;;;;;;5.35;3.15;;;11.70;99.90;;;;;;5025655;28;20237;-76
2022/11/07 03:23:21;;;;;;;5.82;2.75;;;11.70;99.90;;;;;;5031778;28;20208;-77
2022/11/07 03:25:48;;;;;;;7.03;3.50;;;11.70;99.90;;;;;;5034063;28;20210;-76
2022/11/07 03:28:15;;;;;;;5.70;3.28;;;11.80;99.90;;;;;;5036639;28;20181;-76
2022/11/07 03:30:42;;;;;;;3.78;2.50;;;11.80;99.90;;;;;;5036965;28;20215;-77
2022/11/07 03:33:09;;;;;;;7.55;2.88;;;11.90;99.90;;;;;;5037862;28;20255;-76
2022/11/07 03:35:37;;;;;;;11.52;2.75;;;11.90;99.90;;;;;;5037340;28;20235;-77
2022/11/07 03:38:04;;;;;;;7.80;2.85;;;12.00;99.90;;;;;;5036764;28;20192;-76
2022/11/07 03:40:30;;;;;;;7.40;2.70;;;12.10;99.90;;;;;;5033822;28;20203;-77
2022/11/07 03:42:57;;;;;;;5.85;2.40;;;12.00;99.90;;;;;;5036792;28;20223;-77
2022/11/07 03:45:24;;;;;;;7.85;2.70;;;12.00;99.90;;;;;;5037711;28;20263;-76
2022/11/07 03:47:51;;;;;;;9.98;3.00;;;12.00;99.90;;;;;;5034139;28;20234;-77
2022/11/07 03:50:20;;;;;;;7.07;2.90;;;12.00;99.90;;;;;;5031513;28;20197;-77
2022/11/07 03:52:49;;;;;;;9.00;3.95;;;12.00;99.90;;;;;;5030840;28;20240;-77
2022/11/07 03:55:17;;;;;;;6.05;2.65;;;12.10;99.90;;;;;;5030037;28;20234;-77
2022/11/07 03:57:44;;;;;;;7.35;2.75;;;12.20;99.90;;;;;;5030347;28;20303;-77
2022/11/07 04:00:13;;;;;;;6.68;2.33;;;12.10;99.90;;;;;;5024485;28;20199;-77
2022/11/07 04:02:40;;;;;;;6.63;2.47;;;12.10;99.90;;;;;;5027876;28;20211;-77
2022/11/07 04:05:07;;;;;;;5.82;2.22;;;12.00;99.90;;;;;;5015382;28;20267;-78
2022/11/07 04:07:35;;;;;;;7.18;2.70;;;12.00;99.90;;;;;;5023831;28;20227;-77
2022/11/07 04:10:04;;;;;;;5.00;2.17;;;11.90;99.90;;;;;;5029923;28;20203;-77
2022/11/07 04:18:00;;;;;;;4.03;2.75;;;11.90;99.90;;;;;;5036085;28;20211;-76
2022/11/07 04:20:27;;;;;;;4.63;4.03;;;11.90;99.90;;;;;;5036216;28;20236;-75
2022/11/07 04:22:54;;;;;;;5.25;2.95;;;11.90;99.90;;;;;;5033013;28;20221;-76
2022/11/07 04:27:41;;;;;;;5.00;2.67;;;11.90;99.90;;;;;;5032008;28;20212;-76
2022/11/07 04:28:08;;;;;;;12.55;3.78;;;11.90;99.90;;;;;;5035005;28;20210;-76
2022/11/07 04:30:35;;;;;;;4.40;2.57;;;11.80;99.90;;;;;;5032120;28;20256;-76
2022/11/07 04:33:02;;;;;;;9.77;3.35;;;11.80;99.90;;;;;;5029824;28;20231;-77
2022/11/07 04:35:31;;;;;;;11.43;3.40;;;11.80;99.90;;;;;;5034294;28;20223;-76
2022/11/07 04:37:58;;;;;;;6.63;3.13;;;11.80;99.90;;;;;;5030253;28;20241;-77
2022/11/07 04:40:27;;;;;;;7.68;2.45;;;11.80;99.90;;;;;;5034892;28;20239;-78
2022/11/07 04:42:54;;;;;;;3.65;2.35;;;11.90;99.90;;;;;;5031113;28;20229;-77
2022/11/07 04:45:21;;;;;;;13.18;2.90;;;12.00;99.90;;;;;;5036742;28;20212;-77
2022/11/07 04:47:49;;;;;;;10.55;3.20;;;12.00;99.90;;;;;;5011775;28;20230;-76
2022/11/07 04:50:17;;;;;;;5.70;2.83;;;12.10;99.90;;;;;;5018019;28;20211;-78
2022/11/07 04:52:45;;;;;;;8.48;3.05;;;12.10;99.90;;;;;;5022962;28;20207;-79
2022/11/07 04:55:19;;;;;;;6.63;2.47;;;12.10;99.90;;;;;;5017909;28;20201;-77
2022/11/07 04:57:48;;;;;;;9.48;3.67;;;12.20;99.90;;;;;;5014992;28;20212;-78
2022/11/07 05:00:16;;;;;;;7.40;3.00;;;12.20;99.90;;;;;;5012155;28;20207;-78
2022/11/07 05:02:43;;;;;;;7.22;2.70;;;12.30;99.90;;;;;;5018318;28;20721;-77
2022/11/07 05:05:10;;;;;;;9.77;2.85;;;12.20;99.90;;;;;;5016487;28;20208;-78
2022/11/07 05:07:37;;;;;;;10.73;3.22;;;12.20;99.90;;;;;;5019529;28;20204;-78
2022/11/07 05:10:05;;;;;;;9.82;3.65;;;12.20;99.90;;;;;;5019659;28;20689;-78
2022/11/07 05:12:32;;;;;;;9.25;2.75;;;12.20;99.90;;;;;;5012609;28;20665;-78
2022/11/07 05:15:00;;;;;;;9.75;2.50;;;12.10;99.90;;;;;;5008608;28;20211;-77
2022/11/07 05:17:27;;;;;;;10.93;3.85;;;12.10;99.90;;;;;;5013648;28;20319;-77
2022/11/07 05:19:54;;;;;;;7.00;2.33;;;12.20;99.90;;;;;;5018382;28;20201;-77
2022/11/07 05:25:06;;;;;;;4.30;2.40;;;12.10;99.90;;;;;;5014756;28;20773;-78
2022/11/07 05:27:33;;;;;;;9.18;2.80;;;12.10;99.90;;;;;;5024997;28;20259;-77
2022/11/07 05:30:01;;;;;;;5.22;2.78;;;12.10;99.90;;;;;;5019979;28;20619;-77
2022/11/07 05:32:28;;;;;;;8.43;2.80;;;12.10;99.90;;;;;;5017251;28;20246;-77
2022/11/07 05:34:55;;;;;;;7.00;2.45;;;12.10;99.90;;;;;;5019179;28;20304;-77
2022/11/07 05:37:22;;;;;;;9.30;3.47;;;12.00;99.90;;;;;;5019199;28;20809;-77
2022/11/07 05:39:49;;;;;;;4.88;2.70;;;12.10;99.90;;;;;;5020906;28;20901;-77
2022/11/07 05:42:16;;;;;;;9.05;2.80;;;12.00;99.90;;;;;;5013410;28;20225;-79
2022/11/07 05:44:42;;;;;;;4.85;2.30;;;12.00;99.90;;;;;;5016844;28;20740;-76
2022/11/07 05:47:11;;;;;;;7.93;2.85;;;12.10;99.90;;;;;;5019965;28;20211;-77
2022/11/07 05:49:37;;;;;;;4.75;2.40;;;12.10;99.90;;;;;;5020400;28;20261;-77
2022/11/07 05:52:04;;;;;;;15.65;3.47;;;12.10;99.90;;;;;;5010371;28;20472;-77
2022/11/07 05:54:31;;;;;;;7.47;3.30;;;12.20;99.90;;;;;;5009373;28;20693;-78
2022/11/07 05:56:58;;;;;;;4.93;2.60;;;12.20;99.90;;;;;;5009982;28;20338;-77
2022/11/07 05:59:25;;;;;;;7.57;3.03;;;12.20;99.90;;;;;;5005332;28;20216;-77
2022/11/07 06:01:53;;;;;;;15.52;4.47;;;12.20;99.90;;;;;;5022583;28;20220;-77
2022/11/07 06:04:22;;;;;;;8.80;2.60;;;12.20;99.90;;;;;;5010036;28;20311;-78
2022/11/07 06:06:48;;;;;;;8.43;3.70;;;12.20;99.90;;;;;;5010658;28;20208;-78
2022/11/07 06:09:15;;;;;;;6.95;3.50;;;12.30;99.90;;;;;;5009527;28;20225;-77
2022/11/07 06:11:43;;;;;;;9.75;3.22;;;12.20;99.90;;;;;;5015582;28;20260;-78
2022/11/07 06:14:10;;;;;;;10.02;3.78;;;12.20;99.90;;;;;;5009307;28;20228;-79
2022/11/07 06:16:37;;;;;;;7.30;2.70;;;12.20;99.90;;;;;;5022872;28;20653;-77
2022/11/07 06:19:04;;;;;;;10.43;3.08;;;12.30;99.90;;;;;;5023325;28;20236;-77
2022/11/07 06:21:35;;;;;;;6.63;2.85;;;12.20;99.90;;;;;;5029370;28;20292;-78
2022/11/07 06:24:02;;;;;;;7.80;4.53;;;12.20;99.90;;;;;;5015970;28;20229;-76
2022/11/07 06:26:28;;;;;;;10.05;2.97;;;12.20;99.90;;;;;;5021882;28;20205;-85
2022/11/07 06:28:55;;;;;;;7.88;2.75;;;12.20;99.90;;;;;;5016363;28;20479;-84
2022/11/07 06:31:22;;;;;;;9.68;3.50;;;12.20;99.90;;;;;;5011724;28;20231;-80
2022/11/07 06:33:50;;;;;;;5.72;2.75;;;12.10;99.90;;;;;;5016078;28;20259;-80
2022/11/07 06:36:17;;;;;;;8.60;2.80;;;12.10;99.90;;;;;;5015187;28;20235;-80
2022/11/07 06:38:46;;;;;;;8.75;4.47;;;12.10;99.90;;;;;;5021374;28;20614;-79
2022/11/07 06:41:14;;;;;;;6.38;3.03;;;12.10;99.90;;;;;;5016509;28;20236;-78
2022/11/07 06:43:42;;;;;;;7.65;4.15;;;12.10;99.90;;;;;;5014583;28;20228;-79
2022/11/07 06:46:11;;;;;;;6.50;3.33;;;12.20;99.90;;;;;;5019851;28;20220;-78
2022/11/07 06:48:38;;;;;;;12.50;3.97;;;12.20;99.90;;;;;;5017372;28;20641;-78
2022/11/07 06:51:08;;;;;;;7.50;3.50;;;12.30;99.90;;;;;;5016023;28;20264;-82
2022/11/07 06:53:36;;;;;;;10.27;3.30;;;12.30;99.90;;;;;;5013162;28;20285;-78
2022/11/07 06:56:06;;;;;;;6.07;3.55;;;12.40;99.90;;;;;;5014748;28;20214;-77
2022/11/07 06:58:33;;;;;;;8.88;3.25;;;12.40;99.90;;;;;;5017991;28;20204;-80
2022/11/07 07:01:01;;;;;;;10.00;3.83;;;12.30;99.90;;;;;;5016144;28;20207;-80
2022/11/07 07:03:28;;;;;;;11.30;3.70;;;12.30;99.90;;;;;;5008160;28;20236;-79
2022/11/07 07:06:00;;;;;;;13.00;3.13;;;12.30;99.90;;;;;;5013926;28;20200;-79
2022/11/07 07:08:26;;;;;;;5.38;3.17;;;12.40;99.90;;;;;;5020711;28;20203;-81
2022/11/07 07:10:53;;;;;;;13.73;3.92;;;12.30;99.90;;;;;;5023019;28;20384;-77
2022/11/07 07:13:21;;;;;;;8.15;4.65;;;12.40;99.90;;;;;;5018475;28;20232;-80
2022/11/07 07:15:55;;;;;;;12.20;3.90;;;12.50;99.90;;;;;;5018119;28;20246;-79
2022/11/07 07:18:23;;;;;;;8.73;3.50;;;12.40;99.90;;;;;;5020323;28;20224;-79
2022/11/07 07:20:51;;;;;;;6.35;3.03;;;12.60;99.90;;;;;;5018349;28;20295;-80
2022/11/07 07:23:19;;;;;;;11.85;4.05;;;12.70;99.90;;;;;;5013238;28;20312;-80
2022/11/07 07:25:46;;;;;;;6.40;3.13;;;12.70;99.90;;;;;;5020101;28;20216;-79
2022/11/07 07:28:13;;;;;;;14.23;3.47;;;12.80;99.90;;;;;;5015281;28;20291;-79
2022/11/07 07:30:41;;;;;;;10.77;3.50;;;13.00;99.90;;;;;;5017983;28;20272;-79
2022/11/07 07:33:08;;;;;;;10.75;4.10;;;13.20;99.90;;;;;;5015454;28;20253;-79
2022/11/07 07:35:35;;;;;;;11.75;2.97;;;13.40;99.90;;;;;;5020261;28;20473;-77
2022/11/07 07:38:02;;;;;;;10.25;2.72;;;13.40;99.90;;;;;;5019806;28;20300;-78
2022/11/07 07:40:29;;;;;;;8.45;2.60;;;13.90;99.90;;;;;;5015226;28;20205;-78
2022/11/07 07:42:56;;;;;;;5.60;3.50;;;13.80;99.90;;;;;;5018560;28;20308;-80
2022/11/07 07:45:22;;;;;;;11.20;3.10;;;13.80;99.90;;;;;;5018516;28;20225;-78
2022/11/07 07:47:51;;;;;;;8.27;2.58;;;13.80;99.90;;;;;;5021668;28;20260;-77
2022/11/07 07:50:19;;;;;;;7.40;2.60;;;13.70;99.90;;;;;;5023138;28;20236;-77
2022/11/07 07:52:46;;;;;;;8.40;4.47;;;13.60;99.90;;;;;;5031587;28;20232;-77
2022/11/07 07:55:13;;;;;;;7.45;3.28;;;13.50;99.90;;;;;;5030833;28;20264;-77
2022/11/07 07:57:41;;;;;;;4.18;2.92;;;13.50;99.90;;;;;;5034147;28;20244;-77
2022/11/07 08:00:09;;;;;;;8.70;3.92;;;13.40;99.90;;;;;;5032082;28;20235;-78
2022/11/07 08:02:36;;;;;;;9.82;4.28;;;13.40;99.90;;;;;;5021602;28;20240;-77
2022/11/07 08:05:05;;;;;;;17.80;3.05;;;13.40;99.90;;;;;;5034004;28;20268;-78
2022/11/07 08:07:32;;;;;;;11.70;3.97;;;13.70;99.90;;;;;;5037519;28;20207;-78
2022/11/07 08:09:59;;;;;;;10.10;4.25;;;13.80;99.90;;;;;;5037077;28;20208;-77
2022/11/07 08:12:26;;;;;;;8.45;4.03;;;13.90;99.90;;;;;;5037250;28;20236;-77
2022/11/07 08:14:53;;;;;;;12.02;4.20;;;14.00;99.90;;;;;;5037039;28;20243;-77
2022/11/07 08:17:19;;;;;;;9.45;3.83;;;14.00;99.90;;;;;;5023072;28;20217;-76
2022/11/07 08:19:46;;;;;;;12.20;4.95;;;14.00;99.90;;;;;;5017311;28;20190;-80
2022/11/07 08:22:14;;;;;;;7.70;3.60;;;13.80;99.90;;;;;;5019903;28;20197;-77
2022/11/07 08:24:42;;;;;;;11.05;4.43;;;13.90;99.90;;;;;;5035338;28;20242;-81
2022/11/07 08:30:10;;;;;;;11.48;3.83;;;13.90;99.90;;;;;;5038352;28;20219;-81
2022/11/07 08:32:37;;;;;;;10.95;3.97;;;14.20;99.90;;;;;;5023715;28;20272;-86
2022/11/07 08:35:04;;;;;;;11.88;3.67;;;14.40;99.90;;;;;;5025545;28;20212;-83
2022/11/07 08:37:33;;;;;;;13.68;4.10;;;14.40;99.90;;;;;;5027825;28;20227;-85
2022/11/07 08:40:00;;;;;;;13.77;3.58;;;14.30;99.90;;;;;;5035619;28;20258;-82
2022/11/07 08:42:26;;;;;;;8.10;4.18;;;14.10;99.90;;;;;;5021666;28;20192;-84
2022/11/07 08:45:02;;;;;;;9.20;5.00;;;14.00;99.90;;;;;;5030774;28;20721;-86
2022/11/07 08:47:29;;;;;;;13.65;4.10;;;14.10;99.90;;;;;;5015644;28;20265;-81
2022/11/07 08:49:56;;;;;;;7.15;3.90;;;14.00;99.90;;;;;;5022753;28;20205;-78
2022/11/07 08:52:22;;;;;;;12.05;4.65;;;14.00;99.90;;;;;;5023045;28;20644;-78
2022/11/07 08:54:51;;;;;;;8.38;4.65;;;13.90;99.90;;;;;;5013969;28;20250;-80
2022/11/07 08:57:17;;;;;;;13.48;5.68;;;13.90;99.90;;;;;;5013662;28;20861;-81
2022/11/07 08:59:44;;;;;;;7.22;4.38;;;14.00;99.90;;;;;;5020433;28;20201;-79
2022/11/07 09:02:12;;;;;;;6.57;3.72;;;14.00;99.90;;;;;;5018420;28;20201;-79
2022/11/07 09:04:39;;;;;;;8.80;4.63;;;14.00;99.90;;;;;;5012088;28;20232;-78
2022/11/07 09:07:05;;;;;;;11.70;5.05;;;14.00;99.90;;;;;;5016863;28;20268;-79
2022/11/07 09:09:32;;;;;;;7.30;4.50;;;14.20;99.90;;;;;;5014156;28;20287;-78
2022/11/07 09:12:00;;;;;;;18.40;5.10;;;14.30;99.90;;;;;;5016223;28;20205;-79
2022/11/07 09:14:27;;;;;;;8.98;4.57;;;14.20;99.90;;;;;;5021590;28;20634;-79
2022/11/07 09:16:54;;;;;;;11.57;5.05;;;14.30;99.90;;;;;;5023643;28;20214;-79
2022/11/07 09:19:21;;;;;;;10.85;5.95;;;14.30;99.90;;;;;;5022547;28;20266;-78
2022/11/07 09:21:48;;;;;;;9.02;5.10;;;14.20;99.90;;;;;;5015608;28;20257;-81
2022/11/07 09:24:14;;;;;;;10.18;4.60;;;14.00;99.90;;;;;;5015788;28;20277;-79
2022/11/07 09:26:41;;;;;;;9.88;5.35;;;14.00;99.90;;;;;;5022470;28;20202;-80
2022/11/07 09:29:10;;;;;;;13.00;5.43;;;14.10;99.90;;;;;;5022014;28;20289;-80
2022/11/07 09:31:37;;;;;;;7.97;4.68;;;14.20;99.90;;;;;;5017886;28;20296;-77
2022/11/07 09:34:06;;;;;;;13.95;4.32;;;14.30;99.90;;;;;;5024458;28;20256;-79
2022/11/07 09:36:34;;;;;;;11.70;4.13;;;14.30;99.90;;;;;;5017176;28;20208;-80
2022/11/07 09:39:01;;;;;;;10.32;5.25;;;14.20;99.90;;;;;;5023254;28;20316;-78
2022/11/07 09:41:39;;;;;;;8.20;3.88;;;14.20;99.90;;;;;;5022606;28;20721;-78
2022/11/07 09:44:20;;;;;;;13.10;5.50;;;14.30;99.90;;;;;;5016492;28;20252;-80
2022/11/07 09:46:57;;;;;;;13.65;4.10;;;14.30;99.90;;;;;;5021674;28;20201;-79
2022/11/07 09:49:29;;;;;;;7.45;3.95;;;14.20;99.90;;;;;;5016700;28;20268;-81
2022/11/07 09:52:03;;;;;;;13.57;4.00;;;13.90;99.90;;;;;;5022335;28;20666;-80
2022/11/07 09:54:37;;;;;;;10.68;3.60;;;13.70;99.90;;;;;;5018864;28;20247;-78
2022/11/07 09:57:04;;;;;;;8.57;4.07;;;13.70;99.90;;;;;;5017550;28;20224;-79
2022/11/07 09:59:38;;;;;;;13.70;4.25;;;13.80;99.90;;;;;;5020403;28;20215;-79
2022/11/07 10:02:14;;;;;;;18.42;6.15;;;13.80;99.90;;;;;;5021049;28;20729;-80
2022/11/07 10:04:41;;;;;;;14.55;5.13;;;13.80;99.90;;;;;;5019408;28;20239;-79
2022/11/07 10:07:16;;;;;;;11.80;4.60;;;13.90;99.90;;;;;;5016821;28;20228;-78
2022/11/07 10:09:49;;;;;;;8.88;4.88;;;13.70;99.90;;;;;;5023429;28;20204;-79
2022/11/07 10:12:26;;;;;;;10.20;5.68;;;13.70;99.90;;;;;;5019195;28;20331;-79
2022/11/07 10:15:02;;;;;;;8.90;4.75;;;13.70;99.90;;;;;;5026586;28;20223;-78
2022/11/07 10:17:35;;;;;;;12.15;4.47;;;13.50;99.90;;;;;;5033592;28;20220;-75
2022/11/07 10:20:22;;;;;;;12.48;5.35;;;13.40;99.90;;;;;;5028986;28;20465;-76
2022/11/07 10:22:58;;;;;;;13.85;6.53;;;13.50;99.90;;;;;;5039404;28;20251;-78
2022/11/07 10:25:32;;;;;;;14.43;5.40;;;13.50;99.90;;;;;;5029792;28;20202;-78
2022/11/07 10:28:12;;;;;;;19.40;7.40;;;13.60;99.90;;;;;;5037111;28;20196;-78
2022/11/07 10:30:42;;;;;;;9.73;5.70;;;13.80;99.90;;;;;;5041979;28;20215;-76
2022/11/07 10:33:20;;;;;;;7.80;4.10;;;14.00;99.90;;;;;;5039408;28;20213;-78
2022/11/07 10:35:54;;;;;;;8.18;5.20;;;14.00;99.90;;;;;;5026713;28;20201;-79
2022/11/07 10:38:25;;;;;;;17.35;5.57;;;14.20;99.90;;;;;;5018603;28;20221;-77
2022/11/07 10:40:53;;;;;;;10.38;4.95;;;14.20;99.90;;;;;;5022787;28;20268;-81
2022/11/07 10:43:28;;;;;;;12.35;5.10;;;14.20;99.90;;;;;;5024772;28;20248;-81
2022/11/07 10:45:57;;;;;;;10.18;5.00;;;14.20;99.90;;;;;;5019710;28;20232;-79
2022/11/07 10:48:28;;;;;;;9.50;4.45;;;14.30;99.90;;;;;;5016234;28;20747;-81
2022/11/07 10:50:56;;;;;;;9.73;4.80;;;14.40;99.90;;;;;;5023139;28;20199;-82
2022/11/07 10:53:25;;;;;;;19.27;4.72;;;14.40;99.90;;;;;;5015308;28;20229;-80
2022/11/07 10:55:53;;;;;;;10.30;4.32;;;14.60;99.90;;;;;;5021065;28;20205;-79
2022/11/07 10:58:23;;;;;;;12.07;5.15;;;14.60;99.90;;;;;;5025496;28;20222;-80
2022/11/07 11:01:05;;;;;;;10.32;4.53;;;14.90;99.90;;;;;;5025898;28;20275;-78
2022/11/07 11:03:38;;;;;;;13.18;6.35;;;15.10;99.90;;;;;;5022541;28;20769;-80
2022/11/07 11:06:10;;;;;;;7.05;3.08;;;15.20;99.90;;;;;;5023972;28;20211;-84
2022/11/07 11:08:38;;;;;;;6.30;3.97;;;15.20;99.90;;;;;;5025222;28;20209;-80
2022/11/07 11:11:14;;;;;;;6.38;3.40;;;15.20;99.90;;;;;;5024449;28;20199;-79
2022/11/07 11:13:41;;;;;;;10.48;3.38;;;15.20;99.90;;;;;;5010854;28;20229;-81
2022/11/07 11:16:25;;;;;;;10.65;3.50;;;15.10;99.90;;;;;;5022330;28;20265;-78
2022/11/07 11:18:54;;;;;;;9.38;3.35;;;15.00;99.90;;;;;;5023885;28;20291;-80
2022/11/07 11:21:21;;;;;;;10.77;3.60;;;15.10;99.90;;;;;;5016759;28;20323;-80
2022/11/07 11:23:49;;;;;;;12.93;3.15;;;15.20;99.90;;;;;;5011961;28;20249;-78
2022/11/07 11:26:24;;;;;;;17.90;3.60;;;15.10;99.90;;;;;;5017930;28;20206;-81
2022/11/07 11:28:57;;;;;;;13.95;3.17;;;14.90;99.90;;;;;;5018835;28;20228;-80
2022/11/07 11:31:30;;;;;;;8.90;3.65;;;15.00;99.90;;;;;;5014706;28;20205;-80
2022/11/07 11:34:03;;;;;;;11.90;3.33;;;15.00;99.90;;;;;;5021109;28;20233;-80
2022/11/07 11:36:36;;;;;;;8.77;2.92;;;15.00;99.90;;;;;;5017404;28;20270;-79
2022/11/07 11:39:05;;;;;;;8.70;2.85;;;15.00;99.90;;;;;;5016422;28;20235;-80
2022/11/07 11:41:43;;;;;;;8.40;2.92;;;14.90;99.90;;;;;;5018272;28;20198;-80
2022/11/07 11:44:18;;;;;;;8.10;3.65;;;14.80;99.90;;;;;;5018288;28;20910;-80
2022/11/07 11:46:52;;;;;;;9.02;3.33;;;14.60;99.90;;;;;;5022474;28;20196;-80
2022/11/07 11:49:24;;;;;;;10.18;3.15;;;14.60;99.90;;;;;;5021409;28;20238;-80
2022/11/07 11:51:55;;;;;;;14.45;3.90;;;14.60;99.90;;;;;;5021581;28;20217;-81
2022/11/07 11:54:22;;;;;;;8.00;4.78;;;14.70;99.90;;;;;;5022122;28;20724;-80
2022/11/07 11:56:54;;;;;;;7.28;3.33;;;14.60;99.90;;;;;;5025360;28;20197;-80
2022/11/07 11:59:42;;;;;;;9.32;2.83;;;14.70;99.90;;;;;;5021431;28;20232;-80
2022/11/07 12:02:42;;;;;;;5.32;2.70;;;14.70;99.90;;;;;;5009107;28;20280;-80
2022/11/07 12:05:23;;;;;;;12.90;2.90;;;14.70;99.90;;;;;;5021595;28;20297;-83
2022/11/07 12:07:58;;;;;;;24.17;3.53;;;14.80;99.90;;;;;;5028387;28;20265;-81
2022/11/07 12:10:31;;;;;;;22.65;4.43;;;14.70;99.90;;;;;;5024730;28;20238;-82
2022/11/07 12:13:09;;;;;;;9.88;3.15;;;14.70;99.90;;;;;;5029873;28;20224;-82
2022/11/07 12:15:46;;;;;;;7.90;3.28;;;14.70;99.90;;;;;;5015324;28;20198;-81
2022/11/07 12:18:23;;;;;;;11.70;2.83;;;14.70;99.90;;;;;;5025704;28;20251;-82
2022/11/07 12:21:02;;;;;;;5.28;2.83;;;14.70;99.90;;;;;;5020466;28;20689;-78
2022/11/07 12:23:47;;;;;;;6.60;2.95;;;14.70;99.90;;;;;;5022607;28;20740;-80
2022/11/07 12:26:20;;;;;;;10.57;3.85;;;14.50;99.90;;;;;;5023493;28;20200;-79
2022/11/07 12:28:56;;;;;;;11.05;3.55;;;14.50;99.90;;;;;;5022927;28;20280;-80
2022/11/07 12:31:36;;;;;;;9.43;3.42;;;14.60;99.90;;;;;;5019038;28;20288;-79
2022/11/07 12:34:15;;;;;;;10.93;4.05;;;14.60;99.90;;;;;;5016790;28;20225;-81
2022/11/07 12:36:56;;;;;;;8.45;3.30;;;14.60;99.90;;;;;;5024678;28;20290;-78
2022/11/07 12:39:39;;;;;;;12.88;4.57;;;14.80;99.90;;;;;;5043842;28;20216;-79
2022/11/07 12:42:18;;;;;;;11.52;3.10;;;14.80;99.90;;;;;;5033593;28;20213;-82
2022/11/07 12:44:59;;;;;;;9.90;3.25;;;14.90;99.90;;;;;;5038049;28;20301;-79
2022/11/07 12:47:44;;;;;;;4.97;2.33;;;15.00;99.90;;;;;;5039983;28;20212;-80
2022/11/07 12:50:24;;;;;;;7.40;3.20;;;15.10;99.90;;;;;;5031640;28;20191;-79
2022/11/07 12:53:43;;;;;;;8.40;2.85;;;15.20;99.90;;;;;;5036994;28;20289;-85
2022/11/07 12:56:14;;;;;;;7.10;5.00;;;15.00;99.90;;;;;;5025701;28;20206;-80
2022/11/07 12:58:43;;;;;;;9.43;2.80;;;15.10;99.90;;;;;;5014413;28;20313;-77
2022/11/07 13:01:13;;;;;;;7.40;3.13;;;15.20;99.90;;;;;;5024434;28;20213;-81
2022/11/07 13:03:57;;;;;;;8.65;3.20;;;15.20;99.90;;;;;;5028246;28;20391;-78
2022/11/07 13:06:33;;;;;;;9.07;2.85;;;15.10;99.90;;;;;;5038120;28;20205;-78
2022/11/07 13:09:10;;;;;;;7.50;2.90;;;15.10;99.90;;;;;;5043117;28;20196;-78